createdAt,value
2017-10-04T00:00:49.272Z,99879.05
2017-10-04T00:03:15.529Z,99877.98
2017-10-04T00:05:41.775Z,99875.36
2017-10-04T00:08:08.027Z,99875.38
2017-10-04T00:10:34.278Z,99878.66
2017-10-04T00:13:00.544Z,99874.73
2017-10-04T00:15:26.826Z,99871.01
2017-10-04T00:17:53.047Z,99868.83
2017-10-04T00:20:19.300Z,99865.03
2017-10-04T00:22:45.556Z,99864.94
2017-10-04T00:25:11.794Z,99856.77
2017-10-04T00:27:38.007Z,99852.44
2017-10-04T00:30:04.219Z,99855.56
2017-10-04T00:32:30.439Z,99859.52
2017-10-04T00:34:56.701Z,99864.83
2017-10-04T00:37:22.934Z,99863.64
2017-10-04T00:39:49.164Z,99857.31
2017-10-04T00:42:15.385Z,99858.00
2017-10-04T00:44:41.609Z,99850.19
2017-10-04T00:47:07.897Z,99848.70
2017-10-04T00:49:34.127Z,99850.31
2017-10-04T00:52:00.357Z,99853.84
2017-10-04T00:54:26.580Z,99845.67
2017-10-04T00:56:52.808Z,99847.23
2017-10-04T00:59:19.050Z,99839.10
2017-10-04T01:01:45.274Z,99851.63
2017-10-04T01:04:11.505Z,99850.16
2017-10-04T01:06:37.748Z,99852.16
2017-10-04T01:09:03.963Z,99849.94
2017-10-04T01:11:30.944Z,99849.59
2017-10-04T01:13:57.153Z,99844.94
2017-10-04T01:16:23.370Z,99845.14
2017-10-04T01:18:49.976Z,99849.20
2017-10-04T01:21:16.199Z,99855.75
2017-10-04T01:23:42.483Z,99848.82
2017-10-04T01:26:08.698Z,99851.57
2017-10-04T01:28:34.945Z,99849.41
2017-10-04T01:31:02.176Z,99846.23
2017-10-04T01:33:28.389Z,99846.25
2017-10-04T01:35:54.670Z,99848.66
2017-10-04T01:38:20.887Z,99854.62
2017-10-04T01:40:47.089Z,99853.17
2017-10-04T01:43:13.307Z,99856.17
2017-10-04T01:45:39.513Z,99863.72
2017-10-04T01:48:05.766Z,99862.19
2017-10-04T01:50:31.964Z,99859.03
2017-10-04T01:52:58.157Z,99858.59
2017-10-04T01:55:24.353Z,99858.88
2017-10-04T01:57:50.528Z,99861.16
2017-10-04T02:00:16.795Z,99855.75
2017-10-04T02:02:43.009Z,99864.23
2017-10-04T02:05:09.215Z,99869.28
2017-10-04T02:07:35.430Z,99873.72
2017-10-04T02:10:01.634Z,99875.33
2017-10-04T02:12:27.903Z,99865.95
2017-10-04T02:14:54.122Z,99867.96
2017-10-04T02:17:20.337Z,99867.23
2017-10-04T02:19:46.580Z,99865.01
2017-10-04T02:22:12.777Z,99870.08
2017-10-04T02:24:39.039Z,99867.10
2017-10-04T02:27:05.246Z,99865.23
2017-10-04T02:29:31.470Z,99867.31
2017-10-04T02:31:57.699Z,99872.08
2017-10-04T02:34:23.924Z,99866.86
2017-10-04T02:36:50.181Z,99860.11
2017-10-04T02:39:17.490Z,99855.15
2017-10-04T02:41:43.686Z,99856.79
2017-10-04T02:44:09.906Z,99862.94
2017-10-04T02:46:36.157Z,99861.27
2017-10-04T02:49:02.731Z,99869.42
2017-10-04T02:51:28.943Z,99863.48
2017-10-04T02:53:55.202Z,99864.67
2017-10-04T02:56:21.428Z,99860.30
2017-10-04T02:58:47.653Z,99855.67
2017-10-04T03:01:13.880Z,99864.19
2017-10-04T03:03:40.402Z,99857.50
2017-10-04T03:06:06.632Z,99858.77
2017-10-04T03:08:32.825Z,99855.84
2017-10-04T03:10:59.054Z,99854.38
2017-10-04T03:13:25.349Z,99853.84
2017-10-04T03:15:51.574Z,99863.28
2017-10-04T03:18:17.786Z,99870.50
2017-10-04T03:20:44.001Z,99867.27
2017-10-04T03:23:10.214Z,99863.78
2017-10-04T03:25:36.438Z,99870.41
2017-10-04T03:28:02.659Z,99879.19
2017-10-04T03:30:28.864Z,99869.50
2017-10-04T03:32:55.089Z,99873.75
2017-10-04T03:35:21.301Z,99867.39
2017-10-04T03:37:48.326Z,99867.20
2017-10-04T03:40:14.551Z,99867.45
2017-10-04T03:42:40.748Z,99880.07
2017-10-04T03:45:06.955Z,99879.70
2017-10-04T03:47:33.148Z,99880.27
2017-10-04T03:49:59.380Z,99877.88
2017-10-04T03:52:25.588Z,99880.36
2017-10-04T03:54:51.782Z,99880.62
2017-10-04T03:57:17.986Z,99886.45
2017-10-04T03:59:44.200Z,99889.70
2017-10-04T04:02:10.435Z,99885.99
2017-10-04T04:04:36.688Z,99889.69
2017-10-04T04:07:02.911Z,99891.08
2017-10-04T04:09:29.130Z,99889.16
2017-10-04T04:11:55.340Z,99902.13
2017-10-04T04:14:21.617Z,99903.74
2017-10-04T04:16:47.849Z,99907.22
2017-10-04T04:19:14.100Z,99916.23
2017-10-04T04:21:40.339Z,99931.89
2017-10-04T04:24:06.607Z,99933.07
2017-10-04T04:26:32.856Z,99935.06
2017-10-04T04:28:59.108Z,99930.63
2017-10-04T04:31:25.365Z,99929.73
2017-10-04T04:33:51.626Z,99932.30
2017-10-04T04:36:17.849Z,99927.78
2017-10-04T04:38:44.095Z,99922.31
2017-10-04T04:41:10.298Z,99915.13
2017-10-04T04:43:36.524Z,99915.40
2017-10-04T04:46:02.764Z,99909.27
2017-10-04T04:48:28.975Z,99913.57
2017-10-04T04:50:55.200Z,99919.29
2017-10-04T04:53:21.403Z,99916.13
2017-10-04T04:55:47.623Z,99919.72
2017-10-04T04:58:13.878Z,99928.65
2017-10-04T05:00:40.124Z,99928.12
2017-10-04T05:03:06.390Z,99925.55
2017-10-04T05:05:32.652Z,99930.39
2017-10-04T05:07:58.880Z,99932.13
2017-10-04T05:10:25.103Z,99915.41
2017-10-04T05:12:51.340Z,99912.63
2017-10-04T05:15:17.553Z,99910.83
2017-10-04T05:17:43.781Z,99909.37
2017-10-04T05:20:10.045Z,99909.31
2017-10-04T05:22:36.268Z,99910.16
2017-10-04T05:25:02.505Z,99906.46
2017-10-04T05:27:29.248Z,99908.63
2017-10-04T05:29:55.607Z,99911.13
2017-10-04T05:32:21.853Z,99917.37
2017-10-04T05:34:48.083Z,99928.72
2017-10-04T05:37:14.298Z,99926.13
2017-10-04T05:39:40.571Z,99921.08
2017-10-04T05:42:06.826Z,99928.34
2017-10-04T05:44:33.041Z,99924.92
2017-10-04T05:46:59.297Z,99933.27
2017-10-04T05:49:25.613Z,99948.17
2017-10-04T05:51:51.826Z,99954.91
2017-10-04T05:54:18.119Z,99943.62
2017-10-04T05:56:44.368Z,99945.78
2017-10-04T05:59:10.590Z,99945.25
2017-10-04T06:01:36.849Z,99947.98
2017-10-04T06:04:03.080Z,99949.10
2017-10-04T06:06:29.307Z,99955.95
2017-10-04T06:08:55.528Z,99968.27
2017-10-04T06:11:21.753Z,99978.54
2017-10-04T06:13:48.002Z,99980.53
2017-10-04T06:16:14.230Z,99984.66
2017-10-04T06:18:40.479Z,99982.30
2017-10-04T06:21:06.764Z,99978.08
2017-10-04T06:23:33.017Z,99991.14
2017-10-04T06:25:59.292Z,99991.13
2017-10-04T06:28:25.603Z,99999.61
2017-10-04T06:30:51.849Z,99995.80
2017-10-04T06:33:18.145Z,99994.19
2017-10-04T06:35:44.376Z,99996.88
2017-10-04T06:38:10.660Z,100000.92
2017-10-04T06:40:36.940Z,100003.01
2017-10-04T06:43:03.204Z,100005.31
2017-10-04T06:45:29.494Z,100012.32
2017-10-04T06:47:55.865Z,100018.00
2017-10-04T06:50:22.156Z,100014.68
2017-10-04T06:52:48.456Z,100020.45
2017-10-04T06:55:14.818Z,100015.86
2017-10-04T06:57:42.013Z,100015.59
2017-10-04T07:00:08.308Z,100020.69
2017-10-04T07:02:35.408Z,100014.95
2017-10-04T07:05:01.710Z,100016.24
2017-10-04T07:07:27.995Z,100009.88
2017-10-04T07:09:54.278Z,100016.73
2017-10-04T07:12:21.186Z,100012.97
2017-10-04T07:14:48.369Z,100011.17
2017-10-04T07:17:14.659Z,100008.94
2017-10-04T07:19:40.987Z,100012.29
2017-10-04T07:22:11.136Z,100014.94
2017-10-04T07:24:37.759Z,100014.52
2017-10-04T07:27:04.284Z,100024.59
2017-10-04T07:29:31.350Z,100025.34
2017-10-04T07:31:58.634Z,100015.25
2017-10-04T07:34:24.939Z,100014.06
2017-10-04T07:36:51.675Z,100009.36
2017-10-04T07:39:18.944Z,100014.04
2017-10-04T07:41:45.279Z,100013.47
2017-10-04T07:44:11.574Z,100013.06
2017-10-04T07:46:37.896Z,100010.88
2017-10-04T07:49:04.145Z,100013.42
2017-10-04T07:51:30.508Z,100017.88
2017-10-04T07:53:57.036Z,100011.34
2017-10-04T07:56:23.318Z,100017.59
2017-10-04T07:58:49.667Z,100012.83
2017-10-04T08:01:16.595Z,100011.59
2017-10-04T08:03:42.998Z,100011.24
2017-10-04T08:06:09.255Z,100005.31
2017-10-04T08:08:35.556Z,100003.95
2017-10-04T08:11:01.857Z,100002.38
2017-10-04T08:13:28.133Z,100000.63
2017-10-04T08:15:54.502Z,99998.41
2017-10-04T08:18:20.789Z,99993.73
2017-10-04T08:20:47.084Z,99993.78
2017-10-04T08:23:13.428Z,99990.50
2017-10-04T08:25:39.782Z,99985.91
2017-10-04T08:28:06.069Z,99987.31
2017-10-04T08:30:32.349Z,99987.66
2017-10-04T08:32:58.675Z,99982.25
2017-10-04T08:35:25.394Z,99985.16
2017-10-04T08:37:51.675Z,99982.66
2017-10-04T08:40:18.031Z,99979.66
2017-10-04T08:42:44.946Z,99989.81
2017-10-04T08:45:11.232Z,99989.70
2017-10-04T08:47:37.585Z,99987.94
2017-10-04T08:50:03.878Z,99991.81
2017-10-04T08:52:30.186Z,99995.22
2017-10-04T08:54:56.543Z,99989.91
2017-10-04T08:57:24.819Z,99992.14
2017-10-04T08:59:51.122Z,99983.53
2017-10-04T09:02:17.453Z,99986.60
2017-10-04T09:04:44.189Z,99989.67
2017-10-04T09:07:10.551Z,99991.08
2017-10-04T09:09:36.847Z,100005.54
2017-10-04T09:12:03.304Z,99995.58
2017-10-04T09:14:29.688Z,100001.28
2017-10-04T09:16:55.989Z,99992.81
2017-10-04T09:19:23.209Z,100005.89
2017-10-04T09:21:49.732Z,100002.50
2017-10-04T09:24:17.795Z,100008.42
2017-10-04T09:26:44.188Z,100005.70
2017-10-04T09:29:10.829Z,100006.70
2017-10-04T09:31:37.168Z,100001.23
2017-10-04T09:34:03.595Z,99986.20
2017-10-04T09:36:29.986Z,99992.03
2017-10-04T09:38:56.358Z,99992.34
2017-10-04T09:41:23.229Z,99989.33
2017-10-04T09:43:49.653Z,99996.45
2017-10-04T09:46:17.303Z,99992.28
2017-10-04T09:48:43.716Z,99986.41
2017-10-04T09:51:10.032Z,99979.61
2017-10-04T09:56:06.669Z,99973.95
2017-10-04T09:58:32.979Z,99978.95
2017-10-04T10:00:59.306Z,99973.75
2017-10-04T10:03:25.692Z,99975.40
2017-10-04T10:05:52.481Z,99974.79
2017-10-04T10:08:18.856Z,99973.59
2017-10-04T10:10:46.371Z,99972.02
2017-10-04T10:13:11.606Z,99975.80
2017-10-04T10:15:37.959Z,99971.25
2017-10-04T10:18:04.389Z,99957.45
2017-10-04T10:20:30.745Z,99964.74
2017-10-04T10:22:57.156Z,99958.34
2017-10-04T10:25:23.880Z,99954.41
2017-10-04T10:30:21.930Z,99960.50
2017-10-04T10:32:51.794Z,99956.12
2017-10-04T10:35:18.227Z,99955.84
2017-10-04T10:37:44.661Z,99962.54
2017-10-04T10:40:11.039Z,99959.67
2017-10-04T10:42:37.813Z,99956.36
2017-10-04T10:45:07.365Z,99948.30
2017-10-04T10:47:34.658Z,99970.19
2017-10-04T10:50:01.038Z,99969.47
2017-10-04T10:52:27.468Z,99956.91
2017-10-04T10:54:53.842Z,99966.44
2017-10-04T10:57:20.262Z,99965.55
2017-10-04T10:59:46.582Z,99963.15
2017-10-04T11:02:12.942Z,99961.91
2017-10-04T11:04:39.317Z,99962.41
2017-10-04T11:07:05.946Z,99957.57
2017-10-04T11:09:33.567Z,99961.83
2017-10-04T11:12:01.727Z,99952.12
2017-10-04T11:14:30.993Z,99962.39
2017-10-04T11:17:00.741Z,99962.59
2017-10-04T11:19:27.188Z,99965.58
2017-10-04T11:22:05.313Z,99966.62
2017-10-04T11:24:32.478Z,99957.55
2017-10-04T11:27:00.552Z,99952.75
2017-10-04T11:29:26.968Z,99961.56
2017-10-04T11:31:53.439Z,99958.63
2017-10-04T11:34:20.678Z,99956.13
2017-10-04T11:39:32.279Z,99953.02
2017-10-04T11:41:59.886Z,99959.15
2017-10-04T11:44:29.715Z,99959.01
2017-10-04T11:46:56.095Z,99954.05
2017-10-04T11:49:23.041Z,99949.63
2017-10-04T11:51:56.816Z,99954.16
2017-10-04T11:54:23.227Z,99940.36
2017-10-04T11:56:57.383Z,99948.34
2017-10-04T11:59:24.426Z,99946.59
2017-10-04T12:01:50.823Z,99937.39
2017-10-04T12:04:21.053Z,99941.69
2017-10-04T12:06:49.272Z,99938.86
2017-10-04T12:11:45.980Z,99948.86
2017-10-04T12:14:12.334Z,99942.67
2017-10-04T12:16:40.428Z,99938.72
2017-10-04T12:19:06.725Z,99950.78
2017-10-04T12:24:03.655Z,99945.44
2017-10-04T12:26:30.073Z,99949.56
2017-10-04T12:28:56.474Z,99951.64
2017-10-04T12:31:23.094Z,99951.53
2017-10-04T12:33:49.543Z,99940.87
2017-10-04T12:36:16.018Z,99944.23
2017-10-04T12:38:42.458Z,99946.86
2017-10-04T12:41:09.474Z,99950.77
2017-10-04T12:43:35.860Z,99949.34
2017-10-04T12:46:02.258Z,99947.58
2017-10-04T12:48:28.670Z,99942.64
2017-10-04T12:50:55.030Z,99947.34
2017-10-04T12:53:21.407Z,99951.79
2017-10-04T12:55:47.753Z,99942.67
2017-10-04T12:58:14.513Z,99946.31
2017-10-04T13:00:48.420Z,99939.28
2017-10-04T13:03:15.805Z,99940.80
2017-10-04T13:05:42.246Z,99940.64
2017-10-04T13:08:09.445Z,99945.14
2017-10-04T13:10:35.904Z,99932.38
2017-10-04T13:13:02.283Z,99931.84
2017-10-04T13:15:28.665Z,99933.81
2017-10-04T13:17:55.356Z,99932.82
2017-10-04T13:22:52.038Z,99928.30
2017-10-04T13:25:19.108Z,99930.58
2017-10-04T13:27:45.473Z,99926.15
2017-10-04T13:30:13.032Z,99935.61
2017-10-04T13:32:42.906Z,99925.98
2017-10-04T13:35:10.542Z,99926.91
2017-10-04T13:37:36.931Z,99923.55
2017-10-04T13:40:04.347Z,99924.44
2017-10-04T13:42:30.746Z,99929.66
2017-10-04T13:44:57.173Z,99926.05
2017-10-04T13:49:54.950Z,99924.70
2017-10-04T13:52:22.292Z,99916.72
2017-10-04T13:54:48.674Z,99914.83
2017-10-04T13:57:15.064Z,99909.84
2017-10-04T13:59:41.455Z,99906.06
2017-10-04T14:02:09.960Z,99893.65
2017-10-04T14:04:43.389Z,99895.95
2017-10-04T14:07:09.789Z,99896.45
2017-10-04T14:09:36.508Z,99896.80
2017-10-04T14:12:03.139Z,99899.63
2017-10-04T14:14:29.529Z,99898.59
2017-10-04T14:16:56.369Z,99892.30
2017-10-04T14:19:22.725Z,99896.04
2017-10-04T14:21:50.863Z,99886.95
2017-10-04T14:24:17.222Z,99885.33
2017-10-04T14:26:43.559Z,99886.80
2017-10-04T14:29:09.909Z,99881.61
2017-10-04T14:31:38.191Z,99886.03
2017-10-04T14:34:04.468Z,99891.67
2017-10-04T14:36:30.774Z,99886.49
2017-10-04T14:38:57.231Z,99881.69
2017-10-04T14:44:01.959Z,99896.26
2017-10-04T14:46:28.312Z,99884.59
2017-10-04T14:51:42.637Z,99888.38
2017-10-04T14:54:09.492Z,99890.27
2017-10-04T14:56:35.958Z,99885.92
2017-10-04T14:59:03.300Z,99881.84
2017-10-04T15:01:30.907Z,99882.83
2017-10-04T15:03:57.256Z,99882.70
2017-10-04T15:08:55.950Z,99891.06
2017-10-04T15:11:22.303Z,99888.27
2017-10-04T15:13:48.625Z,99900.48
2017-10-04T15:16:15.903Z,99904.71
2017-10-04T15:18:42.668Z,99907.25
2017-10-04T15:21:09.304Z,99915.39
2017-10-04T15:23:35.672Z,99911.95
2017-10-04T15:26:02.062Z,99907.98
2017-10-04T15:28:28.442Z,99907.08
2017-10-04T15:30:54.879Z,99906.45
2017-10-04T15:33:21.448Z,99901.66
2017-10-04T15:35:48.898Z,99907.86
2017-10-04T15:40:48.988Z,99912.84
2017-10-04T15:43:15.300Z,99914.00
2017-10-04T15:45:41.629Z,99917.27
2017-10-04T15:48:07.966Z,99920.83
2017-10-04T15:50:35.520Z,99927.27
2017-10-04T15:53:01.967Z,99925.24
2017-10-04T15:55:28.353Z,99929.51
2017-10-04T15:57:55.949Z,99923.17
2017-10-04T16:00:22.300Z,99926.77
2017-10-04T16:02:49.183Z,99921.10
2017-10-04T16:05:28.364Z,99919.13
2017-10-04T16:08:01.251Z,99923.02
2017-10-04T16:10:27.585Z,99917.21
2017-10-04T16:12:54.819Z,99919.98
2017-10-04T16:15:21.555Z,99923.77
2017-10-04T16:17:50.428Z,99927.13
2017-10-04T16:20:17.925Z,99927.06
2017-10-04T16:22:44.381Z,99926.98
2017-10-04T16:25:10.670Z,99930.94
2017-10-04T16:27:37.174Z,99928.02
2017-10-04T16:32:35.423Z,99921.02
2017-10-04T16:37:41.037Z,99920.88
2017-10-04T16:42:57.266Z,99920.18
2017-10-04T16:45:27.551Z,99913.98
2017-10-04T16:47:54.633Z,99911.80
2017-10-04T16:50:24.982Z,99923.48
2017-10-04T16:52:51.427Z,99919.77
2017-10-04T16:55:17.724Z,99921.86
2017-10-04T16:57:44.098Z,99921.16
2017-10-04T17:00:18.358Z,99919.52
2017-10-04T17:15:06.935Z,99922.88
2017-10-04T17:17:33.263Z,99928.23
2017-10-04T17:19:59.566Z,99922.38
2017-10-04T17:22:27.898Z,99919.94
2017-10-04T17:24:56.543Z,99926.09
2017-10-04T17:27:22.869Z,99927.34
2017-10-04T17:29:49.238Z,99930.58
2017-10-04T17:32:15.544Z,99926.13
2017-10-04T17:34:42.846Z,99923.84
2017-10-04T17:37:10.010Z,99921.50
2017-10-04T17:39:36.355Z,99917.87
2017-10-04T17:42:02.687Z,99920.09
2017-10-04T17:44:29.147Z,99919.67
2017-10-04T17:46:55.635Z,99917.36
2017-10-04T17:52:01.022Z,99917.72
2017-10-04T17:54:29.753Z,99917.92
2017-10-04T17:59:26.409Z,99922.22
2017-10-04T18:01:52.979Z,99919.50
2017-10-04T18:04:22.554Z,99925.81
2017-10-04T18:06:48.882Z,99920.80
2017-10-04T18:09:15.227Z,99927.80
2017-10-04T18:11:41.651Z,99931.78
2017-10-04T18:14:11.185Z,99928.54
2017-10-04T18:16:37.488Z,99929.81
2017-10-04T18:19:07.948Z,99928.61
2017-10-04T18:21:34.402Z,99930.24
2017-10-04T18:24:01.676Z,99934.45
2017-10-04T18:26:28.037Z,99928.98
2017-10-04T18:28:54.580Z,99927.41
2017-10-04T18:31:20.992Z,99927.91
2017-10-04T18:33:47.267Z,99925.58
2017-10-04T18:36:14.604Z,99926.42
2017-10-04T18:38:40.944Z,99936.99
2017-10-04T18:41:07.475Z,99936.95
2017-10-04T18:43:33.839Z,99931.78
2017-10-04T18:46:00.210Z,99936.02
2017-10-04T18:48:26.602Z,99936.98
2017-10-04T18:50:53.395Z,99929.22
2017-10-04T18:53:19.767Z,99937.77
2017-10-04T18:55:46.181Z,99936.34
2017-10-04T18:58:12.930Z,99939.49
2017-10-04T19:00:43.243Z,99939.66
2017-10-04T19:03:09.658Z,99940.04
2017-10-04T19:05:35.989Z,99942.98
2017-10-04T19:08:02.390Z,99948.14
2017-10-04T19:10:28.674Z,99948.16
2017-10-04T19:12:55.014Z,99945.53
2017-10-04T19:15:21.430Z,99945.64
2017-10-04T19:17:47.803Z,99950.20
2017-10-04T19:20:14.656Z,99944.42
2017-10-04T19:22:40.983Z,99945.82
2017-10-04T19:25:07.338Z,99948.37
2017-10-04T19:27:34.260Z,99945.73
2017-10-04T19:30:00.564Z,99951.94
2017-10-04T19:32:26.905Z,99945.53
2017-10-04T19:34:53.217Z,99955.77
2017-10-04T19:37:19.520Z,99950.41
2017-10-04T19:39:45.849Z,99953.75
2017-10-04T19:42:13.004Z,99957.41
2017-10-04T19:44:39.299Z,99958.00
2017-10-04T19:47:05.586Z,99951.11
2017-10-04T19:49:31.877Z,99947.80
2017-10-04T19:51:58.189Z,99957.60
2017-10-04T19:54:24.539Z,99958.36
2017-10-04T19:56:50.896Z,99954.81
2017-10-04T19:59:17.256Z,99950.59
2017-10-04T20:01:43.533Z,99957.03
2017-10-04T20:04:09.868Z,99952.00
2017-10-04T20:06:36.158Z,99956.19
2017-10-04T20:09:02.408Z,99950.55
2017-10-04T20:11:28.693Z,99950.80
2017-10-04T20:13:54.976Z,99952.07
2017-10-04T20:16:21.268Z,99952.68
2017-10-04T20:18:47.576Z,99943.36
2017-10-04T20:21:13.935Z,99950.61
2017-10-04T20:23:40.257Z,99947.75
2017-10-04T20:26:06.508Z,99957.36
2017-10-04T20:28:32.846Z,99951.18
2017-10-04T20:30:59.153Z,99952.47
2017-10-04T20:33:25.380Z,99953.03
2017-10-04T20:35:51.660Z,99952.05
2017-10-04T20:38:17.889Z,99946.14
2017-10-04T20:40:44.680Z,99952.50
2017-10-04T20:43:11.121Z,99946.02
2017-10-04T20:45:37.490Z,99949.45
2017-10-04T20:48:04.230Z,99949.61
2017-10-04T20:50:30.599Z,99948.51
2017-10-04T20:52:56.959Z,99952.72
2017-10-04T20:55:23.253Z,99949.16
2017-10-04T20:57:51.239Z,99950.49
2017-10-04T21:00:17.558Z,99956.47
2017-10-04T21:02:43.842Z,99964.67
2017-10-04T21:05:10.200Z,99965.23
2017-10-04T21:07:36.556Z,99965.09
2017-10-04T21:10:02.856Z,99960.65
2017-10-04T21:12:29.342Z,99959.59
2017-10-04T21:14:55.690Z,99963.67
2017-10-04T21:17:23.213Z,99961.56
2017-10-04T21:19:49.811Z,99955.64
2017-10-04T21:22:16.127Z,99955.66
2017-10-04T21:24:46.307Z,99953.67
2017-10-04T21:27:12.727Z,99958.59
2017-10-04T21:29:39.092Z,99944.30
2017-10-04T21:32:05.604Z,99949.87
2017-10-04T21:34:32.023Z,99945.87
2017-10-04T21:37:00.290Z,99942.88
2017-10-04T21:39:26.651Z,99942.28
2017-10-04T21:41:53.039Z,99943.03
2017-10-04T21:44:19.430Z,99935.27
2017-10-04T21:46:45.821Z,99937.89
2017-10-04T21:49:12.390Z,99934.78
2017-10-04T21:51:38.828Z,99936.43
2017-10-04T21:54:05.263Z,99941.63
2017-10-04T21:56:33.605Z,99937.36
2017-10-04T21:59:01.409Z,99928.38
2017-10-04T22:01:28.555Z,99924.13
2017-10-04T22:03:55.023Z,99924.31
2017-10-04T22:06:34.978Z,99933.19
2017-10-04T22:09:04.968Z,99929.25
2017-10-04T22:11:31.392Z,99920.98
2017-10-04T22:13:57.642Z,99917.31
2017-10-04T22:16:24.057Z,99921.96
2017-10-04T22:18:50.399Z,99917.90
2017-10-04T22:21:16.794Z,99917.83
2017-10-04T22:23:43.234Z,99916.66
2017-10-04T22:26:09.564Z,99911.45
2017-10-04T22:28:36.057Z,99908.45
2017-10-04T22:31:02.523Z,99913.64
2017-10-04T22:33:28.865Z,99910.54
2017-10-04T22:35:55.154Z,99911.48
2017-10-04T22:38:21.953Z,99902.87
2017-10-04T22:40:52.068Z,99901.34
2017-10-04T22:43:21.464Z,99903.30
2017-10-04T22:45:56.277Z,99907.77
2017-10-04T22:48:22.591Z,99912.59
2017-10-04T22:50:50.067Z,99918.16
2017-10-04T22:53:16.483Z,99913.39
2017-10-04T22:55:42.890Z,99913.81
2017-10-04T22:58:09.235Z,99911.11
2017-10-04T23:00:35.616Z,99909.34
2017-10-04T23:03:02.167Z,99904.97
2017-10-04T23:05:28.478Z,99897.09
2017-10-04T23:07:54.835Z,99902.53
2017-10-04T23:10:21.120Z,99897.56
2017-10-04T23:12:49.306Z,99897.42
2017-10-04T23:15:15.727Z,99901.52
2017-10-04T23:17:42.111Z,99903.71
2017-10-04T23:20:08.517Z,99896.80
2017-10-04T23:22:34.964Z,99894.20
2017-10-04T23:25:01.415Z,99889.96
2017-10-04T23:27:27.728Z,99892.53
2017-10-04T23:29:54.016Z,99879.89
2017-10-04T23:32:20.384Z,99882.48
2017-10-04T23:34:50.725Z,99879.89
2017-10-04T23:37:17.134Z,99880.80
2017-10-04T23:39:43.392Z,99865.89
2017-10-04T23:42:09.739Z,99865.53
2017-10-04T23:44:36.056Z,99860.66
2017-10-04T23:47:02.380Z,99859.98
2017-10-04T23:49:28.787Z,99856.84
2017-10-04T23:51:55.146Z,99852.02
2017-10-04T23:54:21.482Z,99840.86
2017-10-04T23:56:47.817Z,99843.13
2017-10-04T23:59:14.205Z,99841.20
